Time;durP1;ratioP1;P1;durP2;ratioP2;P2;SDS_P1;SDS_P2;PMS_P1;PMS_P2;Temp;Humidity;BMP_temperature;BMP_pressure;BME280_temperature;BME280_humidity;BME280_pressure;Samples;Min_cycle;Max_cycle;Signal;HPM_P1;HPM_P2
2021/08/03 00:01:04;;;;;;;8.48;3.35;;;15.00;99.90;;;;;;5070918;28;25110;-68
2021/08/03 00:03:39;;;;;;;7.68;3.10;;;15.00;99.90;;;;;;5038751;28;25150;-69
2021/08/03 00:06:12;;;;;;;5.18;2.97;;;15.00;99.90;;;;;;5069904;28;25089;-67
2021/08/03 00:08:57;;;;;;;;;;;14.90;99.90;;;;;;5053801;28;25072;-68
2021/08/03 00:11:25;;;;;;;10.30;2.75;;;14.80;99.90;;;;;;5057851;28;25090;-69
2021/08/03 00:13:51;;;;;;;5.57;2.83;;;14.90;99.90;;;;;;5058906;28;25065;-68
2021/08/03 00:16:17;;;;;;;4.60;2.35;;;14.90;99.90;;;;;;5060235;28;25119;-67
2021/08/03 00:18:43;;;;;;;8.95;2.80;;;14.90;99.90;;;;;;5068987;28;25086;-67
2021/08/03 00:21:13;;;;;;;6.93;2.92;;;14.90;99.90;;;;;;5054256;28;25085;-68
2021/08/03 00:23:45;;;;;;;6.00;2.70;;;14.90;99.90;;;;;;5080250;28;25070;-67
2021/08/03 00:26:12;;;;;;;12.25;3.17;;;14.90;99.90;;;;;;5058277;28;25073;-67
2021/08/03 00:28:39;;;;;;;9.32;3.17;;;14.90;99.90;;;;;;5060183;28;25056;-68
2021/08/03 00:31:05;;;;;;;12.77;3.13;;;14.90;99.90;;;;;;5075234;28;25061;-68
2021/08/03 00:33:32;;;;;;;13.07;3.47;;;15.00;99.90;;;;;;5052507;28;25097;-70
2021/08/03 00:35:57;;;;;;;6.57;3.00;;;15.00;99.90;;;;;;5075487;28;25110;-69
2021/08/03 00:38:23;;;;;;;5.55;2.78;;;14.80;99.90;;;;;;5071130;28;25049;-68
2021/08/03 00:41:01;;;;;;;6.43;2.80;;;14.90;99.90;;;;;;5062908;28;25166;-68
2021/08/03 00:43:26;;;;;;;5.43;2.97;;;15.00;99.90;;;;;;5047767;28;25106;-68
2021/08/03 00:45:52;;;;;;;6.88;3.08;;;15.00;99.90;;;;;;5064684;28;25090;-69
2021/08/03 00:48:18;;;;;;;4.50;2.88;;;15.10;99.90;;;;;;5079045;28;25139;-70
2021/08/03 00:50:44;;;;;;;9.20;3.10;;;15.10;99.90;;;;;;5087452;28;25075;-70
2021/08/03 00:53:10;;;;;;;7.40;3.25;;;15.20;99.90;;;;;;5088838;28;25058;-68
2021/08/03 00:55:37;;;;;;;4.85;2.88;;;15.20;99.90;;;;;;5084018;28;25067;-69
2021/08/03 00:58:04;;;;;;;8.38;3.40;;;15.00;99.90;;;;;;5060572;28;25057;-66
2021/08/03 01:00:29;;;;;;;5.75;3.03;;;15.10;99.90;;;;;;5070307;28;25060;-68
2021/08/03 01:02:55;;;;;;;7.97;3.05;;;15.20;99.90;;;;;;5064639;28;25057;-68
2021/08/03 01:05:21;;;;;;;4.85;2.53;;;15.40;99.90;;;;;;5051011;28;25105;-68
2021/08/03 01:08:04;;;;;;;6.88;3.28;;;15.30;99.90;;;;;;5080130;28;25078;-69
2021/08/03 01:10:44;;;;;;;5.88;3.05;;;15.20;99.90;;;;;;5068964;28;25055;-68
2021/08/03 01:13:19;;;;;;;4.35;2.72;;;15.10;99.90;;;;;;5067854;28;25095;-66
2021/08/03 01:15:50;;;;;;;9.88;2.85;;;15.00;99.90;;;;;;5038168;28;25066;-68
2021/08/03 01:18:32;;;;;;;5.88;2.95;;;15.10;99.90;;;;;;5059557;28;25067;-68
2021/08/03 01:20:58;;;;;;;;;;;15.00;99.90;;;;;;5060490;28;25068;-68
2021/08/03 01:23:57;;;;;;;4.30;2.92;;;15.10;99.90;;;;;;5057203;28;25125;-68
2021/08/03 01:26:58;;;;;;;9.43;3.22;;;15.10;99.90;;;;;;5046979;28;25079;-68
2021/08/03 01:29:26;;;;;;;7.10;3.22;;;15.10;99.90;;;;;;5064547;28;25181;-69
2021/08/03 01:31:57;;;;;;;5.50;2.67;;;15.00;99.90;;;;;;5040101;28;25066;-69
2021/08/03 01:34:26;;;;;;;7.05;3.28;;;15.00;99.90;;;;;;5070460;28;25061;-68
2021/08/03 01:36:54;;;;;;;5.70;2.50;;;15.10;99.90;;;;;;5056475;28;25072;-69
2021/08/03 01:39:25;;;;;;;7.40;2.58;;;15.20;99.90;;;;;;5061135;28;25066;-68
2021/08/03 01:41:53;;;;;;;4.82;2.53;;;15.40;99.90;;;;;;5045746;28;25122;-68
2021/08/03 01:44:21;;;;;;;4.50;2.45;;;15.50;99.90;;;;;;5069216;28;25141;-68
2021/08/03 01:46:48;;;;;;;6.05;2.83;;;15.50;99.90;;;;;;5064925;28;25068;-68
2021/08/03 01:49:18;;;;;;;4.93;2.97;;;15.50;99.90;;;;;;5058616;28;25131;-67
2021/08/03 01:51:47;;;;;;;7.38;2.90;;;15.30;99.90;;;;;;5049659;28;25095;-68
2021/08/03 01:54:14;;;;;;;3.70;2.47;;;15.30;99.90;;;;;;5051003;28;25109;-66
2021/08/03 01:56:42;;;;;;;5.35;3.15;;;15.20;99.90;;;;;;5067043;28;25076;-67
2021/08/03 01:59:10;;;;;;;6.97;3.00;;;15.30;99.90;;;;;;5048244;28;25072;-66
2021/08/03 02:01:36;;;;;;;4.57;2.58;;;15.30;99.90;;;;;;5039091;28;25076;-67
2021/08/03 02:04:03;;;;;;;5.53;3.08;;;15.30;99.90;;;;;;5056471;28;25070;-68
2021/08/03 02:06:29;;;;;;;9.18;3.42;;;15.20;99.90;;;;;;5046259;28;25067;-67
2021/08/03 02:08:57;;;;;;;9.05;3.35;;;15.10;99.90;;;;;;5047944;28;25145;-67
2021/08/03 02:11:29;;;;;;;4.88;2.70;;;14.90;99.90;;;;;;5042446;28;25009;-68
2021/08/03 02:13:58;;;;;;;;;;;14.80;99.90;;;;;;5048357;28;25069;-69
2021/08/03 02:16:24;;;;;;;4.97;3.75;;;14.70;99.90;;;;;;5048756;28;24065;-68
2021/08/03 02:18:51;;;;;;;6.88;3.60;;;14.70;99.90;;;;;;5061523;28;25094;-69
2021/08/03 02:21:22;;;;;;;9.00;3.05;;;14.70;99.90;;;;;;5047154;28;25067;-67
2021/08/03 02:23:49;;;;;;;11.45;4.35;;;14.60;99.90;;;;;;5048905;28;25069;-67
2021/08/03 02:26:15;;;;;;;4.65;4.00;;;14.50;99.90;;;;;;5063551;28;25059;-68
2021/08/03 02:28:41;;;;;;;7.45;4.00;;;14.50;99.90;;;;;;5074932;28;25077;-68
2021/08/03 02:31:14;;;;;;;6.28;4.57;;;14.50;99.90;;;;;;5063410;28;25077;-68
2021/08/03 02:33:56;;;;;;;7.70;5.13;;;14.40;99.90;;;;;;5041940;28;25118;-70
2021/08/03 02:36:27;;;;;;;;;;;14.30;99.90;;;;;;5060548;28;25084;-71
2021/08/03 02:38:57;;;;;;;7.25;4.72;;;14.20;99.90;;;;;;5059402;28;24070;-68
2021/08/03 02:41:24;;;;;;;9.57;5.38;;;14.20;99.90;;;;;;5061740;28;25100;-69
2021/08/03 02:43:52;;;;;;;6.95;5.13;;;14.20;99.90;;;;;;5045423;28;25065;-67
2021/08/03 02:46:22;;;;;;;15.02;5.00;;;14.30;99.90;;;;;;5063713;28;25069;-67
2021/08/03 02:49:00;;;;;;;13.45;5.80;;;14.50;99.90;;;;;;5056217;28;25126;-67
2021/08/03 02:51:27;;;;;;;11.20;5.82;;;14.50;99.90;;;;;;5061300;28;25054;-67
2021/08/03 02:53:53;;;;;;;7.85;5.15;;;14.50;99.90;;;;;;5063620;28;25150;-68
2021/08/03 02:56:22;;;;;;;11.93;5.10;;;14.50;99.90;;;;;;5058383;28;25152;-67
2021/08/03 02:59:12;;;;;;;11.23;5.15;;;14.40;99.90;;;;;;5051282;28;25124;-67
2021/08/03 03:01:40;;;;;;;9.15;5.60;;;14.40;99.90;;;;;;5065209;28;25103;-69
2021/08/03 03:04:16;;;;;;;8.70;5.53;;;14.30;99.90;;;;;;5070711;28;25070;-71
2021/08/03 03:06:47;;;;;;;8.55;6.00;;;14.30;99.90;;;;;;5068114;28;25090;-70
2021/08/03 03:09:13;;;;;;;10.15;5.57;;;14.20;99.90;;;;;;5067948;28;25157;-69
2021/08/03 03:11:40;;;;;;;7.85;5.40;;;14.20;99.90;;;;;;5061260;28;25102;-68
2021/08/03 03:14:07;;;;;;;7.07;4.90;;;14.30;99.90;;;;;;5049335;28;25048;-68
2021/08/03 03:16:39;;;;;;;7.22;5.20;;;14.20;99.90;;;;;;5044074;28;25072;-68
2021/08/03 03:19:05;;;;;;;11.85;5.53;;;14.30;99.90;;;;;;5052771;28;25096;-68
2021/08/03 03:21:33;;;;;;;8.35;5.13;;;14.30;99.90;;;;;;5081288;28;25100;-68
2021/08/03 03:24:00;;;;;;;5.65;4.63;;;14.20;99.90;;;;;;5069492;28;25077;-68
2021/08/03 03:26:34;;;;;;;7.93;4.70;;;14.40;99.90;;;;;;5051347;28;25062;-68
2021/08/03 03:29:01;;;;;;;8.13;4.72;;;14.40;99.90;;;;;;5059253;28;25099;-67
2021/08/03 03:31:28;;;;;;;9.30;5.20;;;14.50;99.90;;;;;;5070297;28;25101;-67
2021/08/03 03:33:56;;;;;;;10.02;5.07;;;14.30;99.90;;;;;;5072077;28;25070;-68
2021/08/03 03:36:26;;;;;;;9.80;4.72;;;14.40;99.90;;;;;;5044683;28;25057;-67
2021/08/03 03:38:53;;;;;;;8.65;4.85;;;14.50;99.90;;;;;;5065162;28;25065;-69
2021/08/03 03:41:25;;;;;;;8.27;5.20;;;14.30;99.90;;;;;;5068979;28;25126;-68
2021/08/03 03:43:51;;;;;;;13.07;5.72;;;14.20;99.90;;;;;;5051424;28;25054;-66
2021/08/03 03:46:19;;;;;;;7.35;4.43;;;14.10;99.90;;;;;;5035092;28;25057;-68
2021/08/03 03:48:52;;;;;;;13.57;5.03;;;14.20;99.90;;;;;;5064938;28;25136;-68
2021/08/03 03:51:23;;;;;;;11.00;5.30;;;14.20;99.90;;;;;;5049562;28;25140;-69
2021/08/03 03:54:12;;;;;;;8.13;5.50;;;14.10;99.90;;;;;;5068608;28;25070;-68
2021/08/03 03:56:46;;;;;;;12.02;5.85;;;14.00;99.90;;;;;;5064556;28;25076;-70
2021/08/03 03:59:15;;;;;;;9.85;5.80;;;13.80;99.90;;;;;;5085125;28;25101;-67
2021/08/03 04:01:41;;;;;;;12.35;6.68;;;13.80;99.90;;;;;;5073492;28;25095;-69
2021/08/03 04:04:10;;;;;;;9.80;6.15;;;13.80;99.90;;;;;;5058622;28;25104;-68
2021/08/03 04:06:36;;;;;;;13.10;6.85;;;13.80;99.90;;;;;;5073298;28;25087;-68
2021/08/03 04:09:02;;;;;;;12.35;6.60;;;13.80;99.90;;;;;;5066769;28;25064;-66
2021/08/03 04:11:28;;;;;;;8.88;6.95;;;13.80;99.90;;;;;;5046036;28;25138;-67
2021/08/03 04:13:55;;;;;;;15.80;7.60;;;13.80;99.90;;;;;;5042050;28;25067;-69
2021/08/03 04:16:20;;;;;;;10.75;7.60;;;13.70;99.90;;;;;;5043402;28;25088;-69
2021/08/03 04:18:46;;;;;;;12.52;7.53;;;13.80;99.90;;;;;;5041839;28;25106;-68
2021/08/03 04:21:12;;;;;;;15.90;7.65;;;13.60;99.90;;;;;;5050943;28;25059;-66
2021/08/03 04:23:37;;;;;;;13.98;8.00;;;13.60;99.90;;;;;;5064947;28;25060;-70
2021/08/03 04:26:03;;;;;;;10.77;8.18;;;13.50;99.90;;;;;;5050801;28;25158;-68
2021/08/03 04:28:29;;;;;;;12.38;7.60;;;13.50;99.90;;;;;;5049985;28;25092;-68
2021/08/03 04:30:54;;;;;;;15.02;7.85;;;13.40;99.90;;;;;;5064864;28;25057;-68
2021/08/03 04:33:20;;;;;;;12.13;7.55;;;13.40;99.90;;;;;;5055913;28;25087;-67
2021/08/03 04:35:46;;;;;;;12.52;8.07;;;13.40;99.90;;;;;;5065166;28;25054;-67
2021/08/03 04:38:11;;;;;;;11.98;6.85;;;13.50;99.90;;;;;;5066257;28;25129;-67
2021/08/03 04:40:38;;;;;;;14.50;6.82;;;13.60;99.90;;;;;;5045336;28;25107;-68
2021/08/03 04:43:04;;;;;;;12.57;7.90;;;13.60;99.90;;;;;;5068953;28;25063;-67
2021/08/03 04:45:29;;;;;;;15.73;6.95;;;13.70;99.90;;;;;;5061927;28;25123;-68
2021/08/03 04:47:55;;;;;;;10.82;6.72;;;13.80;99.90;;;;;;5071588;28;25077;-68
2021/08/03 04:50:26;;;;;;;10.02;7.10;;;13.80;99.90;;;;;;5076922;28;25071;-68
2021/08/03 04:52:53;;;;;;;9.43;6.07;;;13.90;99.90;;;;;;5075548;28;25115;-69
2021/08/03 04:55:19;;;;;;;11.57;6.30;;;14.10;99.90;;;;;;5036258;28;25058;-68
2021/08/03 04:57:44;;;;;;;10.27;6.20;;;14.20;99.90;;;;;;5053332;28;25120;-67
2021/08/03 05:00:13;;;;;;;10.60;6.15;;;14.20;99.90;;;;;;5065068;28;25122;-67
2021/08/03 05:02:39;;;;;;;10.55;5.82;;;14.10;99.90;;;;;;5064262;28;25077;-68
2021/08/03 05:05:06;;;;;;;11.45;5.57;;;14.20;99.90;;;;;;5058026;28;25073;-68
2021/08/03 05:07:32;;;;;;;6.53;4.80;;;14.10;99.90;;;;;;5059519;28;25114;-67
2021/08/03 05:10:05;;;;;;;12.35;4.53;;;14.20;99.90;;;;;;5064533;28;25064;-68
2021/08/03 05:12:32;;;;;;;10.95;5.47;;;14.40;99.90;;;;;;5068242;28;25057;-66
2021/08/03 05:15:00;;;;;;;9.95;4.85;;;14.50;99.90;;;;;;5062522;28;25069;-70
2021/08/03 05:17:30;;;;;;;5.28;4.72;;;14.50;99.90;;;;;;5065694;28;25106;-67
2021/08/03 05:19:56;;;;;;;10.82;4.95;;;14.40;99.90;;;;;;5060876;28;25060;-67
2021/08/03 05:22:22;;;;;;;9.23;4.55;;;14.50;99.90;;;;;;5062377;28;25073;-69
2021/08/03 05:24:47;;;;;;;7.82;4.95;;;14.50;99.90;;;;;;5051839;28;25117;-66
2021/08/03 05:27:13;;;;;;;5.43;4.05;;;14.40;99.90;;;;;;5053475;28;25053;-68
2021/08/03 05:29:38;;;;;;;9.40;4.40;;;14.50;99.90;;;;;;5050421;28;25107;-67
2021/08/03 05:32:04;;;;;;;8.40;4.75;;;14.60;99.90;;;;;;5061228;28;25096;-67
2021/08/03 05:34:30;;;;;;;8.65;5.60;;;14.60;99.90;;;;;;5068599;28;25111;-68
2021/08/03 05:36:55;;;;;;;9.18;5.47;;;14.60;99.90;;;;;;5052071;28;25096;-67
2021/08/03 05:39:21;;;;;;;7.70;5.13;;;14.50;99.90;;;;;;5060431;28;25091;-67
2021/08/03 05:41:46;;;;;;;11.65;5.78;;;14.60;99.90;;;;;;5063398;28;25104;-66
2021/08/03 05:44:13;;;;;;;8.60;5.47;;;14.60;99.90;;;;;;5063817;28;25065;-67
2021/08/03 05:46:39;;;;;;;8.88;5.32;;;14.60;99.90;;;;;;5067278;28;25092;-71
2021/08/03 05:49:04;;;;;;;8.75;5.13;;;14.60;99.90;;;;;;5066133;28;25069;-68
2021/08/03 05:51:30;;;;;;;9.90;5.13;;;14.70;99.90;;;;;;5066010;28;25062;-66
2021/08/03 05:53:55;;;;;;;8.70;4.55;;;14.70;99.90;;;;;;5064609;28;24981;-67
2021/08/03 05:56:21;;;;;;;8.45;4.45;;;14.80;99.90;;;;;;5063868;28;25074;-65
2021/08/03 05:58:46;;;;;;;8.73;4.20;;;14.70;99.90;;;;;;5058268;28;25072;-67
2021/08/03 06:01:12;;;;;;;8.52;4.55;;;14.70;99.90;;;;;;5036664;28;25069;-67
2021/08/03 06:03:37;;;;;;;9.93;3.95;;;14.70;99.90;;;;;;5053611;28;25071;-68
2021/08/03 06:06:07;;;;;;;10.18;4.68;;;14.80;99.90;;;;;;5056398;28;25075;-68
2021/08/03 06:08:34;;;;;;;7.90;4.88;;;14.80;99.90;;;;;;5059599;28;25054;-66
2021/08/03 06:11:01;;;;;;;7.47;4.47;;;14.60;99.90;;;;;;5072681;28;25072;-69
2021/08/03 06:13:28;;;;;;;9.50;4.60;;;14.60;99.90;;;;;;5067972;28;25097;-67
2021/08/03 06:15:58;;;;;;;9.10;4.65;;;14.70;99.90;;;;;;5063673;28;25088;-67
2021/08/03 06:18:31;;;;;;;10.07;4.57;;;14.70;99.90;;;;;;5062530;28;25112;-66
2021/08/03 06:20:58;;;;;;;6.65;4.40;;;14.70;99.90;;;;;;5058626;28;25065;-68
2021/08/03 06:23:25;;;;;;;4.97;3.92;;;14.90;99.90;;;;;;5062586;28;25139;-66
2021/08/03 06:25:52;;;;;;;9.15;4.57;;;15.00;99.90;;;;;;5070215;28;25063;-67
2021/08/03 06:28:21;;;;;;;8.35;3.83;;;15.00;99.90;;;;;;5071052;28;25143;-67
2021/08/03 06:30:48;;;;;;;12.15;4.10;;;15.00;99.90;;;;;;5070376;28;25127;-67
2021/08/03 06:33:19;;;;;;;9.88;3.75;;;15.20;99.90;;;;;;5072961;28;25161;-68
2021/08/03 06:35:46;;;;;;;5.85;3.60;;;15.20;99.90;;;;;;5071629;28;25081;-65
2021/08/03 06:38:13;;;;;;;5.70;3.20;;;15.30;99.90;;;;;;5071529;28;25055;-68
2021/08/03 06:40:58;;;;;;;8.05;4.03;;;15.30;99.90;;;;;;5054378;28;25109;-67
2021/08/03 06:43:25;;;;;;;8.40;2.97;;;15.60;99.90;;;;;;5062696;28;25051;-67
2021/08/03 06:46:10;;;;;;;10.25;3.10;;;15.90;99.90;;;;;;5068071;28;25087;-66
2021/08/03 06:48:44;;;;;;;6.47;3.40;;;16.10;99.90;;;;;;5074454;28;25089;-67
2021/08/03 06:51:13;;;;;;;6.03;2.92;;;16.20;99.90;;;;;;5068807;28;25079;-67
2021/08/03 06:53:44;;;;;;;5.22;2.95;;;16.10;99.90;;;;;;5071102;28;25051;-67
2021/08/03 06:56:10;;;;;;;4.40;2.75;;;16.10;99.90;;;;;;5061952;28;25061;-67
2021/08/03 06:59:03;;;;;;;5.50;2.95;;;15.90;99.90;;;;;;5070789;28;25078;-66
2021/08/03 07:01:55;;;;;;;13.00;3.25;;;16.00;99.90;;;;;;5083553;28;25072;-67
2021/08/03 07:04:29;;;;;;;9.35;2.97;;;16.30;99.90;;;;;;5083560;28;25050;-67
2021/08/03 07:07:01;;;;;;;5.63;3.25;;;16.30;99.90;;;;;;5068790;28;25064;-67
2021/08/03 07:09:28;;;;;;;4.15;2.92;;;16.40;99.90;;;;;;5080639;28;25050;-66
2021/08/03 07:11:54;;;;;;;8.90;3.20;;;16.40;99.90;;;;;;5067358;28;25127;-66
2021/08/03 07:14:24;;;;;;;5.82;3.22;;;16.50;99.90;;;;;;5066273;28;25067;-65
2021/08/03 07:16:53;;;;;;;5.10;3.22;;;16.50;99.90;;;;;;5072988;28;25081;-66
2021/08/03 07:19:21;;;;;;;6.93;3.22;;;16.40;99.90;;;;;;5062812;28;25140;-67
2021/08/03 07:21:47;;;;;;;12.48;3.58;;;16.30;99.90;;;;;;5067280;28;25077;-65
2021/08/03 07:24:13;;;;;;;6.88;3.03;;;16.40;99.90;;;;;;5070725;28;25173;-66
2021/08/03 07:26:39;;;;;;;6.47;3.53;;;16.40;99.90;;;;;;5070860;28;25106;-67
2021/08/03 07:29:05;;;;;;;9.98;3.20;;;16.20;99.90;;;;;;5074292;28;25068;-65
2021/08/03 07:31:34;;;;;;;9.05;3.22;;;16.10;99.90;;;;;;5073146;28;25132;-66
2021/08/03 07:34:00;;;;;;;5.03;3.25;;;16.00;99.90;;;;;;5070228;28;25062;-66
2021/08/03 07:36:25;;;;;;;11.07;3.25;;;15.90;99.90;;;;;;5061455;28;25048;-66
2021/08/03 07:38:57;;;;;;;3.17;2.58;;;16.00;99.90;;;;;;5079053;28;25062;-68
2021/08/03 07:41:25;;;;;;;6.00;3.33;;;16.10;99.90;;;;;;5074034;28;25075;-66
2021/08/03 07:43:51;;;;;;;7.75;2.90;;;16.30;99.90;;;;;;5071475;28;25069;-67
2021/08/03 07:46:17;;;;;;;6.47;2.88;;;16.30;99.90;;;;;;5069425;28;25060;-68
2021/08/03 07:48:44;;;;;;;7.28;2.65;;;16.30;99.90;;;;;;5079518;28;25073;-67
2021/08/03 07:51:10;;;;;;;3.85;2.63;;;16.50;99.90;;;;;;5074875;28;25100;-67
2021/08/03 07:53:36;;;;;;;4.38;1.70;;;16.80;99.90;;;;;;5083985;28;25157;-68
2021/08/03 07:56:01;;;;;;;3.22;1.30;;;17.30;99.90;;;;;;5062730;28;25057;-67
2021/08/03 07:58:27;;;;;;;7.05;1.80;;;17.40;99.90;;;;;;5073769;28;25178;-67
2021/08/03 08:00:52;;;;;;;4.97;1.58;;;17.50;99.90;;;;;;5066692;28;25064;-66
2021/08/03 08:03:18;;;;;;;5.65;1.65;;;17.80;99.90;;;;;;5054359;28;25065;-69
2021/08/03 08:05:43;;;;;;;4.30;1.40;;;17.30;99.90;;;;;;5066633;28;25065;-68
2021/08/03 08:08:09;;;;;;;3.30;1.17;;;17.30;99.90;;;;;;5065681;28;25133;-67
2021/08/03 08:10:34;;;;;;;2.35;1.20;;;17.30;99.90;;;;;;5062187;28;25116;-65
2021/08/03 08:13:00;;;;;;;6.68;1.30;;;17.10;99.90;;;;;;5051660;28;25066;-68
2021/08/03 08:15:25;;;;;;;6.53;1.45;;;17.10;99.90;;;;;;5051703;28;25081;-66
2021/08/03 08:17:51;;;;;;;5.22;1.80;;;17.00;99.90;;;;;;5069723;28;25056;-66
2021/08/03 08:20:16;;;;;;;4.80;1.45;;;16.90;99.90;;;;;;5068773;28;25057;-65
2021/08/03 08:22:43;;;;;;;6.15;1.58;;;16.90;99.90;;;;;;5051901;28;25100;-69
2021/08/03 08:25:10;;;;;;;4.32;1.30;;;17.10;99.90;;;;;;5070564;28;25086;-67
2021/08/03 08:27:41;;;;;;;3.33;1.17;;;17.40;99.90;;;;;;5073319;28;25059;-66
2021/08/03 08:30:08;;;;;;;2.78;1.52;;;17.30;99.90;;;;;;5066499;28;25122;-66
2021/08/03 08:32:35;;;;;;;12.23;1.52;;;17.00;99.90;;;;;;5068887;28;25099;-66
2021/08/03 08:35:04;;;;;;;2.28;1.00;;;17.00;99.90;;;;;;5064327;28;25125;-67
2021/08/03 08:37:29;;;;;;;5.07;1.52;;;17.00;99.90;;;;;;5070909;28;25162;-66
2021/08/03 08:39:55;;;;;;;9.13;1.60;;;17.10;99.90;;;;;;5072012;28;25104;-67
2021/08/03 08:42:20;;;;;;;4.78;0.88;;;17.00;99.90;;;;;;5067748;28;25059;-67
2021/08/03 08:44:49;;;;;;;5.07;1.20;;;17.10;99.90;;;;;;5067407;28;25129;-66
2021/08/03 08:47:16;;;;;;;8.55;1.73;;;17.10;99.90;;;;;;5059230;28;25070;-68
2021/08/03 08:49:43;;;;;;;4.78;1.40;;;17.40;99.90;;;;;;5065842;28;25105;-66
2021/08/03 08:52:10;;;;;;;3.97;1.67;;;17.30;99.90;;;;;;5073458;28;25053;-68
2021/08/03 08:54:36;;;;;;;4.65;1.42;;;17.20;99.90;;;;;;5063902;28;25044;-67
2021/08/03 08:57:02;;;;;;;3.38;1.77;;;17.40;99.90;;;;;;5064227;28;25056;-67
2021/08/03 08:59:27;;;;;;;3.90;1.90;;;17.20;99.90;;;;;;5049532;28;25146;-68
2021/08/03 09:01:53;;;;;;;6.28;1.80;;;17.30;99.90;;;;;;5065243;28;25101;-68
2021/08/03 09:04:18;;;;;;;7.32;1.98;;;17.30;99.90;;;;;;5069499;28;25063;-68
2021/08/03 09:07:05;;;;;;;8.38;2.10;;;17.40;99.90;;;;;;5037152;28;25112;-68
2021/08/03 09:09:39;;;;;;;4.55;2.10;;;17.50;99.90;;;;;;5069672;28;25064;-67
2021/08/03 09:12:05;;;;;;;3.13;1.52;;;17.50;99.90;;;;;;5068129;28;25062;-69
2021/08/03 09:14:35;;;;;;;9.45;2.83;;;17.60;99.90;;;;;;5059842;28;25072;-67
2021/08/03 09:17:01;;;;;;;6.28;3.25;;;17.50;99.90;;;;;;5066641;28;25068;-68
2021/08/03 09:19:29;;;;;;;3.15;2.70;;;17.40;99.90;;;;;;5068581;28;25063;-66
2021/08/03 09:22:14;;;;;;;5.78;2.63;;;17.40;99.90;;;;;;5067264;28;25061;-65
2021/08/03 09:24:41;;;;;;;9.52;3.22;;;17.60;99.90;;;;;;5058811;28;25077;-66
2021/08/03 09:27:07;;;;;;;6.30;2.92;;;17.90;99.90;;;;;;5064560;28;25126;-67
2021/08/03 09:29:45;;;;;;;9.38;3.88;;;18.00;99.90;;;;;;5049896;28;25138;-67
2021/08/03 09:32:12;;;;;;;5.13;2.80;;;17.80;99.90;;;;;;5064388;28;25104;-67
2021/08/03 09:34:38;;;;;;;3.33;2.85;;;17.60;99.90;;;;;;5068519;28;25134;-66
2021/08/03 09:37:04;;;;;;;8.40;2.67;;;17.60;99.90;;;;;;5067507;28;25100;-67
2021/08/03 09:39:47;;;;;;;5.97;3.70;;;17.70;99.90;;;;;;5061505;28;25061;-65
2021/08/03 09:42:20;;;;;;;9.45;4.35;;;17.80;99.90;;;;;;5063872;28;25100;-67
2021/08/03 09:44:59;;;;;;;7.53;3.30;;;17.80;99.90;;;;;;5066769;28;25062;-67
2021/08/03 09:47:27;;;;;;;9.80;3.85;;;17.80;99.90;;;;;;5067624;28;25074;-66
2021/08/03 09:49:56;;;;;;;5.07;4.13;;;17.80;99.90;;;;;;5069017;28;25073;-66
2021/08/03 09:52:24;;;;;;;9.52;4.18;;;17.90;99.90;;;;;;5069856;28;25082;-66
2021/08/03 09:54:50;;;;;;;9.63;4.78;;;18.00;99.90;;;;;;5060678;28;25053;-66
2021/08/03 09:57:18;;;;;;;5.93;4.95;;;18.20;99.90;;;;;;5068161;28;25061;-67
2021/08/03 09:59:44;;;;;;;8.48;5.22;;;18.10;99.90;;;;;;5050066;28;25067;-66
2021/08/03 10:02:17;;;;;;;13.02;5.82;;;18.10;99.90;;;;;;5049649;28;25070;-67
2021/08/03 10:04:44;;;;;;;8.40;4.72;;;18.00;99.90;;;;;;5061423;28;25061;-67
2021/08/03 10:07:10;;;;;;;9.63;5.78;;;17.90;99.90;;;;;;5068119;28;25088;-68
2021/08/03 10:09:37;;;;;;;12.38;5.68;;;17.80;99.90;;;;;;5059550;28;25072;-68
2021/08/03 10:12:03;;;;;;;8.88;6.70;;;17.90;99.90;;;;;;5065948;28;25137;-68
2021/08/03 10:14:29;;;;;;;7.25;5.68;;;17.80;99.90;;;;;;5085033;28;25147;-67
2021/08/03 10:16:56;;;;;;;10.48;6.18;;;17.90;99.90;;;;;;5066023;28;25088;-68
2021/08/03 10:19:24;;;;;;;9.95;7.05;;;17.80;99.90;;;;;;5071038;28;25050;-67
2021/08/03 10:22:12;;;;;;;9.73;7.25;;;17.80;99.90;;;;;;5067581;28;25095;-68
2021/08/03 10:24:48;;;;;;;11.05;7.82;;;17.90;99.90;;;;;;5061644;28;25131;-67
2021/08/03 10:27:15;;;;;;;12.25;7.90;;;17.80;99.90;;;;;;5066967;28;25053;-65
2021/08/03 10:29:49;;;;;;;16.27;9.13;;;17.80;99.90;;;;;;5067999;28;25064;-68
2021/08/03 10:32:40;;;;;;;12.43;8.65;;;17.60;99.90;;;;;;5067084;28;25088;-66
2021/08/03 10:35:15;;;;;;;11.43;7.93;;;17.70;99.90;;;;;;5066936;28;25071;-67
2021/08/03 10:37:59;;;;;;;10.27;8.82;;;17.90;99.90;;;;;;5064868;28;25092;-68
2021/08/03 10:40:44;;;;;;;10.32;7.53;;;18.10;99.90;;;;;;5055141;28;25057;-68
2021/08/03 10:43:17;;;;;;;14.88;7.47;;;17.80;99.90;;;;;;5042609;28;25070;-68
2021/08/03 10:45:45;;;;;;;20.33;8.40;;;18.00;99.90;;;;;;5067560;28;25069;-69
2021/08/03 10:48:31;;;;;;;12.95;8.00;;;17.70;99.90;;;;;;5067153;28;25059;-69
2021/08/03 10:50:56;;;;;;;15.65;7.38;;;17.70;99.90;;;;;;5059090;28;25091;-67
2021/08/03 10:53:22;;;;;;;13.70;8.15;;;17.90;99.90;;;;;;5069437;28;24852;-67
2021/08/03 10:56:00;;;;;;;11.57;8.00;;;18.20;99.90;;;;;;5067526;28;25057;-68
2021/08/03 10:58:28;;;;;;;10.85;7.88;;;18.40;99.90;;;;;;5063627;28;25081;-68
2021/08/03 11:00:59;;;;;;;13.13;8.85;;;18.50;99.90;;;;;;5073989;28;25056;-67
2021/08/03 11:03:30;;;;;;;18.85;8.52;;;18.40;99.90;;;;;;5059407;28;25129;-68
2021/08/03 11:05:57;;;;;;;14.50;8.95;;;18.30;99.90;;;;;;5050072;28;25106;-68
2021/08/03 11:08:49;;;;;;;13.07;7.32;;;18.50;99.90;;;;;;5063765;28;25144;-70
2021/08/03 11:11:23;;;;;;;12.77;7.43;;;18.70;99.90;;;;;;5058294;28;25113;-68
2021/08/03 11:14:05;;;;;;;14.80;7.63;;;18.90;99.90;;;;;;5079255;28;25133;-69
2021/08/03 11:16:31;;;;;;;13.70;7.32;;;18.90;99.90;;;;;;5057970;28;25055;-70
2021/08/03 11:19:02;;;;;;;11.35;6.65;;;18.90;99.90;;;;;;5071607;28;25073;-68
2021/08/03 11:21:30;;;;;;;10.57;7.27;;;19.00;99.90;;;;;;5071321;28;25091;-67
2021/08/03 11:24:16;;;;;;;13.15;6.32;;;19.00;99.90;;;;;;5074127;28;25101;-69
2021/08/03 11:26:55;;;;;;;13.55;6.68;;;19.20;99.90;;;;;;5054742;28;25062;-67
2021/08/03 11:29:23;;;;;;;12.63;7.13;;;19.50;99.90;;;;;;5072736;28;25058;-67
2021/08/03 11:32:02;;;;;;;11.38;7.57;;;19.70;99.90;;;;;;5073506;28;25137;-68
2021/08/03 11:34:32;;;;;;;9.07;6.93;;;19.50;99.90;;;;;;5069025;28;25052;-67
2021/08/03 11:37:08;;;;;;;9.45;6.90;;;19.40;99.90;;;;;;5074977;28;25148;-68
2021/08/03 11:39:38;;;;;;;9.40;7.68;;;19.10;99.90;;;;;;5072872;28;25065;-67
2021/08/03 11:42:05;;;;;;;12.75;7.35;;;19.10;99.90;;;;;;5073150;28;25155;-66
2021/08/03 11:44:30;;;;;;;12.80;7.00;;;19.00;99.90;;;;;;5072067;28;25073;-67
2021/08/03 11:47:16;;;;;;;11.60;7.57;;;18.80;99.90;;;;;;5067657;28;25128;-68
2021/08/03 11:49:46;;;;;;;12.02;7.10;;;18.70;99.90;;;;;;5071976;28;25108;-66
2021/08/03 11:52:22;;;;;;;10.95;7.57;;;18.60;99.90;;;;;;5065583;28;25156;-67
2021/08/03 11:54:51;;;;;;;9.75;7.60;;;18.60;99.90;;;;;;5070479;28;25063;-66
2021/08/03 11:57:29;;;;;;;10.07;7.57;;;18.80;99.90;;;;;;5050853;28;25134;-67
2021/08/03 12:00:07;;;;;;;11.65;7.13;;;19.00;99.90;;;;;;5064716;28;25060;-68
2021/08/03 12:02:33;;;;;;;14.65;7.75;;;19.00;99.90;;;;;;5050644;28;25140;-68
2021/08/03 12:05:07;;;;;;;18.70;8.02;;;19.00;99.90;;;;;;5042985;28;25061;-69
2021/08/03 12:07:34;;;;;;;12.45;7.03;;;18.80;99.90;;;;;;5070147;28;25097;-69
2021/08/03 12:10:00;;;;;;;10.48;7.38;;;18.90;99.90;;;;;;5057279;28;25060;-68
2021/08/03 12:12:26;;;;;;;14.50;8.23;;;19.00;99.90;;;;;;5055714;28;25072;-68
2021/08/03 12:15:02;;;;;;;14.25;7.82;;;19.10;99.90;;;;;;5066110;28;25065;-68
2021/08/03 12:17:28;;;;;;;14.05;9.43;;;19.10;99.90;;;;;;5050284;28;25116;-67
2021/08/03 12:20:00;;;;;;;18.20;9.40;;;19.20;99.90;;;;;;5069645;28;25081;-67
2021/08/03 12:22:28;;;;;;;13.98;7.80;;;19.40;99.90;;;;;;5070701;28;25113;-68
2021/08/03 12:25:03;;;;;;;13.90;8.35;;;19.50;99.90;;;;;;5051982;28;25156;-69
2021/08/03 12:27:41;;;;;;;12.80;8.30;;;19.70;99.90;;;;;;5067374;28;25055;-67
2021/08/03 12:30:07;;;;;;;11.65;8.00;;;19.90;99.90;;;;;;5064791;28;25108;-67
2021/08/03 12:32:40;;;;;;;14.55;9.05;;;19.80;99.90;;;;;;5065220;28;25069;-66
2021/08/03 12:35:13;;;;;;;11.43;9.23;;;20.10;99.90;;;;;;5072213;28;25106;-67
2021/08/03 12:37:39;;;;;;;13.07;8.68;;;20.00;99.90;;;;;;5069249;28;25078;-68
2021/08/03 12:40:35;;;;;;;12.63;7.97;;;20.20;99.90;;;;;;5074757;28;25085;-66
2021/08/03 12:43:01;;;;;;;16.38;9.55;;;20.30;99.90;;;;;;5050718;28;25113;-65
2021/08/03 12:45:27;;;;;;;14.05;9.40;;;19.70;99.90;;;;;;5074367;28;25130;-68
2021/08/03 12:47:54;;;;;;;12.85;9.05;;;19.80;99.90;;;;;;5074574;28;25065;-68
2021/08/03 12:50:21;;;;;;;13.50;10.10;;;20.20;99.90;;;;;;5067697;28;25057;-65
2021/08/03 12:52:55;;;;;;;14.88;8.38;;;20.40;99.90;;;;;;5067724;28;25060;-69
2021/08/03 12:56:00;;;;;;;12.35;7.43;;;20.70;99.90;;;;;;5062022;28;25151;-68